createdAt,value
2022-11-17T00:00:42.905Z,11.40
2022-11-17T00:03:14.599Z,11.50
2022-11-17T00:05:42.560Z,11.50
2022-11-17T00:08:10.424Z,11.50
2022-11-17T00:10:38.282Z,11.50
2022-11-17T00:13:25.248Z,11.50
2022-11-17T00:15:53.151Z,11.50
2022-11-17T00:18:46.754Z,11.40
2022-11-17T00:21:21.576Z,11.40
2022-11-17T00:23:50.400Z,11.40
2022-11-17T00:26:20.577Z,11.40
2022-11-17T00:28:53.002Z,11.40
2022-11-17T00:31:39.107Z,11.40
2022-11-17T00:34:07.796Z,11.40
2022-11-17T00:36:38.408Z,11.40
2022-11-17T00:39:06.952Z,11.40
2022-11-17T00:41:34.925Z,11.40
2022-11-17T00:44:04.674Z,11.40
2022-11-17T00:46:33.290Z,11.40
2022-11-17T00:49:01.177Z,11.40
2022-11-17T00:51:30.051Z,11.40
2022-11-17T00:53:57.931Z,11.40
2022-11-17T00:56:26.557Z,11.40
2022-11-17T00:58:54.558Z,11.40
2022-11-17T01:01:24.254Z,11.40
2022-11-17T01:04:02.771Z,11.40
2022-11-17T01:06:33.200Z,11.40
2022-11-17T01:09:01.620Z,11.40
2022-11-17T01:11:30.132Z,11.40
2022-11-17T01:14:00.641Z,11.50
2022-11-17T01:16:32.084Z,11.50
2022-11-17T01:19:01.644Z,11.50
2022-11-17T01:21:30.963Z,11.50
2022-11-17T01:24:00.489Z,11.50
2022-11-17T01:26:30.384Z,11.50
2022-11-17T01:28:59.267Z,11.50
2022-11-17T01:31:30.860Z,11.50
2022-11-17T01:33:59.118Z,11.50
2022-11-17T01:36:28.861Z,11.50
2022-11-17T01:38:57.097Z,11.50
2022-11-17T01:41:27.365Z,11.50
2022-11-17T01:43:56.625Z,11.50
2022-11-17T01:46:34.031Z,11.50
2022-11-17T01:49:06.204Z,11.50
2022-11-17T01:51:38.373Z,11.50
2022-11-17T01:54:06.777Z,11.50
2022-11-17T01:56:40.276Z,11.50
2022-11-17T01:59:11.277Z,11.60
2022-11-17T02:01:55.863Z,11.60
2022-11-17T02:04:25.986Z,11.60
2022-11-17T02:06:59.335Z,11.60
2022-11-17T02:09:28.602Z,11.60
2022-11-17T02:11:58.928Z,11.50
2022-11-17T02:14:26.904Z,11.60
2022-11-17T02:16:56.178Z,11.60
2022-11-17T02:19:26.935Z,11.60
2022-11-17T02:22:24.951Z,11.60
2022-11-17T02:25:26.697Z,11.70
2022-11-17T02:28:09.200Z,11.70
2022-11-17T02:30:45.324Z,11.70
2022-11-17T02:33:20.363Z,11.70
2022-11-17T02:35:55.426Z,11.70
2022-11-17T02:38:30.740Z,11.70
2022-11-17T02:41:06.192Z,11.70
2022-11-17T02:44:00.258Z,11.70
2022-11-17T02:46:32.382Z,11.70
2022-11-17T02:49:05.883Z,11.80
2022-11-17T02:51:37.324Z,11.70
2022-11-17T02:54:06.105Z,11.80
2022-11-17T02:56:34.049Z,11.80
2022-11-17T02:59:05.974Z,11.80
2022-11-17T03:01:58.222Z,11.80
2022-11-17T03:04:32.504Z,11.80
2022-11-17T03:07:12.140Z,11.80
2022-11-17T03:09:48.295Z,11.80
2022-11-17T03:12:23.159Z,11.80
2022-11-17T03:15:04.098Z,11.80
2022-11-17T03:17:41.275Z,11.90
2022-11-17T03:20:14.390Z,11.80
2022-11-17T03:22:47.349Z,11.80
2022-11-17T03:25:20.326Z,11.80
2022-11-17T03:27:51.034Z,11.90
2022-11-17T03:30:23.071Z,11.80
2022-11-17T03:32:57.542Z,11.80
2022-11-17T03:35:28.685Z,11.80
2022-11-17T03:38:01.449Z,11.90
2022-11-17T03:40:31.773Z,11.90
2022-11-17T03:43:03.440Z,11.90
2022-11-17T03:45:39.106Z,11.80
2022-11-17T03:48:11.849Z,11.80
2022-11-17T03:50:45.061Z,11.80
2022-11-17T03:53:13.053Z,11.90
2022-11-17T03:55:47.920Z,11.80
2022-11-17T03:58:19.265Z,11.80
2022-11-17T04:00:53.015Z,11.90
2022-11-17T04:03:23.280Z,11.80
2022-11-17T04:05:51.161Z,11.80
2022-11-17T04:08:19.775Z,11.80
2022-11-17T04:11:10.559Z,11.80
2022-11-17T04:13:56.162Z,11.80
2022-11-17T04:16:25.388Z,11.80
2022-11-17T04:18:58.541Z,11.80
2022-11-17T04:21:26.960Z,11.90
2022-11-17T04:23:56.129Z,11.90
2022-11-17T04:26:41.756Z,11.90
2022-11-17T04:29:09.946Z,11.90
2022-11-17T04:31:39.223Z,11.90
2022-11-17T04:34:07.985Z,11.90
2022-11-17T04:36:40.190Z,11.90
2022-11-17T04:39:08.508Z,11.90
2022-11-17T04:41:54.437Z,11.90
2022-11-17T04:44:23.960Z,11.90
2022-11-17T04:46:53.840Z,11.90
2022-11-17T04:49:23.326Z,11.90
2022-11-17T04:51:52.334Z,11.80
2022-11-17T04:54:21.849Z,11.80
2022-11-17T04:56:49.901Z,11.80
2022-11-17T04:59:17.844Z,11.80
2022-11-17T05:01:46.233Z,11.80
2022-11-17T05:04:38.268Z,11.80
2022-11-17T05:07:06.613Z,11.80
2022-11-17T05:09:34.640Z,11.80
2022-11-17T05:12:20.192Z,11.80
2022-11-17T05:14:50.301Z,11.80
2022-11-17T05:17:17.800Z,11.80
2022-11-17T05:19:49.091Z,11.80
2022-11-17T05:22:36.471Z,11.80
2022-11-17T05:25:05.873Z,11.90
2022-11-17T05:27:34.336Z,11.90
2022-11-17T05:30:02.368Z,11.90
2022-11-17T05:32:30.285Z,11.90
2022-11-17T05:34:59.487Z,11.90
2022-11-17T05:37:27.374Z,11.90
2022-11-17T05:39:55.263Z,11.90
2022-11-17T05:42:23.096Z,11.90
2022-11-17T05:44:50.945Z,11.90
2022-11-17T05:47:18.892Z,11.90
2022-11-17T05:49:46.739Z,11.90
2022-11-17T05:52:15.967Z,11.90
2022-11-17T05:54:43.863Z,11.90
2022-11-17T05:57:16.239Z,11.90
2022-11-17T05:59:47.617Z,11.90
2022-11-17T06:02:20.096Z,11.90
2022-11-17T06:04:50.488Z,11.90
2022-11-17T06:07:21.094Z,11.90
2022-11-17T06:09:49.154Z,11.90
2022-11-17T06:12:17.101Z,11.90
2022-11-17T06:14:45.046Z,11.90
2022-11-17T06:17:22.156Z,11.90
2022-11-17T06:19:56.772Z,11.90
2022-11-17T06:22:26.979Z,11.90
2022-11-17T06:24:56.020Z,11.90
2022-11-17T06:27:25.580Z,11.80
2022-11-17T06:29:54.991Z,11.90
2022-11-17T06:32:23.274Z,11.90
2022-11-17T06:34:56.121Z,11.90
2022-11-17T06:37:26.023Z,11.90
2022-11-17T06:39:54.019Z,11.90
2022-11-17T06:42:42.894Z,11.90
2022-11-17T06:45:11.849Z,12.00
2022-11-17T06:47:40.272Z,12.00
2022-11-17T06:50:09.251Z,12.00
2022-11-17T06:52:38.711Z,12.00
2022-11-17T06:55:07.605Z,12.00
2022-11-17T06:57:35.595Z,12.00
2022-11-17T07:00:04.059Z,12.00
2022-11-17T07:02:32.983Z,12.00
2022-11-17T07:05:01.056Z,12.10
2022-11-17T07:07:29.119Z,12.10
2022-11-17T07:09:58.406Z,12.10
2022-11-17T07:12:26.287Z,12.10
2022-11-17T07:14:54.269Z,12.10
2022-11-17T07:17:22.153Z,12.10
2022-11-17T07:19:50.016Z,12.10
2022-11-17T07:22:18.003Z,12.10
2022-11-17T07:24:45.926Z,12.10
2022-11-17T07:27:15.182Z,12.10
2022-11-17T07:29:43.108Z,12.10
2022-11-17T07:32:13.759Z,12.10
2022-11-17T07:34:42.658Z,12.00
2022-11-17T07:37:10.614Z,12.10
2022-11-17T07:39:38.478Z,12.10
2022-11-17T07:42:06.642Z,12.10
2022-11-17T07:44:36.048Z,12.10
2022-11-17T07:47:04.096Z,12.10
2022-11-17T07:49:32.004Z,12.10
2022-11-17T07:51:59.947Z,12.10
2022-11-17T07:54:27.956Z,12.10
2022-11-17T07:56:55.813Z,12.10
2022-11-17T07:59:23.798Z,12.10
2022-11-17T08:01:53.082Z,12.00
2022-11-17T08:04:20.972Z,12.10
2022-11-17T08:06:48.832Z,12.10
2022-11-17T08:09:17.321Z,12.10
2022-11-17T08:11:45.189Z,12.00
2022-11-17T08:14:13.064Z,12.00
2022-11-17T08:16:40.951Z,12.00
2022-11-17T08:19:11.943Z,12.00
2022-11-17T08:21:41.560Z,12.00
2022-11-17T08:24:09.952Z,12.00
2022-11-17T08:26:37.838Z,12.00
2022-11-17T08:29:05.921Z,11.90
2022-11-17T08:31:34.248Z,12.00
2022-11-17T08:34:02.185Z,12.00
2022-11-17T08:36:31.581Z,12.00
2022-11-17T08:38:59.526Z,12.00
2022-11-17T08:41:27.536Z,12.00
2022-11-17T08:43:55.461Z,12.10
2022-11-17T08:46:23.426Z,12.00
2022-11-17T08:48:56.811Z,12.00
2022-11-17T08:51:27.151Z,12.00
2022-11-17T08:53:56.641Z,12.00
2022-11-17T08:56:24.526Z,12.00
2022-11-17T08:58:52.540Z,12.00
2022-11-17T09:01:20.513Z,12.00
2022-11-17T09:03:49.057Z,11.90
2022-11-17T09:06:18.340Z,11.90
2022-11-17T09:08:47.344Z,11.90
2022-11-17T09:11:16.992Z,11.90
2022-11-17T09:13:45.723Z,11.80
2022-11-17T09:16:14.350Z,11.90
2022-11-17T09:18:42.699Z,11.80
2022-11-17T09:21:12.698Z,11.80
2022-11-17T09:23:40.632Z,11.90
2022-11-17T09:26:09.957Z,11.80
2022-11-17T09:28:39.711Z,11.90
2022-11-17T09:31:09.239Z,11.90
2022-11-17T09:33:38.296Z,11.90
2022-11-17T09:36:07.601Z,11.90
2022-11-17T09:38:37.216Z,11.90
2022-11-17T09:41:22.377Z,11.90
2022-11-17T09:43:58.600Z,11.80
2022-11-17T09:46:33.332Z,11.80
2022-11-17T09:49:12.015Z,11.80
2022-11-17T09:51:43.134Z,11.80
2022-11-17T09:54:19.703Z,11.80
2022-11-17T09:56:48.959Z,11.80
2022-11-17T09:59:22.555Z,11.80
2022-11-17T10:01:50.545Z,11.90
2022-11-17T10:04:18.853Z,11.80
2022-11-17T10:06:50.688Z,11.80
2022-11-17T10:09:25.873Z,11.90
2022-11-17T10:11:55.879Z,11.90
2022-11-17T10:14:28.975Z,11.80
2022-11-17T10:16:59.398Z,11.90
2022-11-17T10:19:29.246Z,11.90
2022-11-17T10:22:13.710Z,11.80
2022-11-17T10:24:42.659Z,11.80
2022-11-17T10:27:21.535Z,11.80
2022-11-17T10:30:05.592Z,11.70
2022-11-17T10:32:36.466Z,11.80
2022-11-17T10:35:18.275Z,11.70
2022-11-17T10:37:55.481Z,11.80
2022-11-17T10:40:26.331Z,11.70
2022-11-17T10:43:14.183Z,11.80
2022-11-17T10:45:46.599Z,11.80
2022-11-17T10:48:26.956Z,11.80
2022-11-17T10:50:57.037Z,11.80
2022-11-17T10:53:43.488Z,11.70
2022-11-17T10:56:16.863Z,11.80
2022-11-17T10:59:00.888Z,11.80
2022-11-17T11:01:32.241Z,11.80
2022-11-17T11:04:00.632Z,11.80
2022-11-17T11:06:30.630Z,11.80
2022-11-17T11:09:01.971Z,11.90
2022-11-17T11:11:43.987Z,11.90
2022-11-17T11:14:23.128Z,11.90
2022-11-17T11:16:52.406Z,11.90
2022-11-17T11:19:21.607Z,11.90
2022-11-17T11:22:27.355Z,11.90
2022-11-17T11:25:04.273Z,11.90
2022-11-17T11:27:46.066Z,11.90
2022-11-17T11:30:16.294Z,11.90
2022-11-17T11:32:59.631Z,11.90
2022-11-17T11:35:49.313Z,11.90
2022-11-17T11:38:48.652Z,11.90
2022-11-17T11:41:36.555Z,11.90
2022-11-17T11:44:18.793Z,11.90
2022-11-17T11:46:55.131Z,11.90
2022-11-17T11:49:33.769Z,11.90
2022-11-17T11:52:03.294Z,11.90
2022-11-17T11:54:40.199Z,11.90
2022-11-17T11:57:12.622Z,11.90
2022-11-17T11:59:48.163Z,11.90
2022-11-17T12:02:27.620Z,12.00
2022-11-17T12:05:06.048Z,12.00
2022-11-17T12:07:41.961Z,12.00
2022-11-17T12:10:19.596Z,12.00
2022-11-17T12:12:48.274Z,12.00
2022-11-17T12:15:33.682Z,12.00
2022-11-17T12:18:04.886Z,12.10
2022-11-17T12:20:59.754Z,12.10
2022-11-17T12:23:33.108Z,12.10
2022-11-17T12:26:02.531Z,12.10
2022-11-17T12:28:36.430Z,12.10
2022-11-17T12:31:10.143Z,12.10
2022-11-17T12:34:11.066Z,12.10
2022-11-17T12:36:40.606Z,12.10
2022-11-17T12:39:48.570Z,12.10
2022-11-17T12:42:16.399Z,12.10
2022-11-17T12:44:50.506Z,12.00
2022-11-17T12:47:20.716Z,12.00
2022-11-17T12:50:15.239Z,12.10
2022-11-17T12:52:57.690Z,12.00
2022-11-17T12:55:40.961Z,12.00
2022-11-17T12:58:19.368Z,12.00
2022-11-17T13:00:56.601Z,12.00
2022-11-17T13:03:28.976Z,12.00
2022-11-17T13:06:33.757Z,11.90
2022-11-17T13:08:59.721Z,12.00
2022-11-17T13:11:28.561Z,12.00
2022-11-17T13:14:10.878Z,12.00
2022-11-17T13:16:45.924Z,12.00
2022-11-17T13:19:38.378Z,12.00
2022-11-17T13:22:14.815Z,12.00
2022-11-17T13:24:46.089Z,11.90
2022-11-17T13:27:22.873Z,11.90
2022-11-17T13:29:50.891Z,11.90
2022-11-17T13:32:22.069Z,11.90
2022-11-17T13:34:52.474Z,11.90
2022-11-17T13:37:23.146Z,11.90
2022-11-17T13:40:01.164Z,11.90
2022-11-17T13:42:33.296Z,12.00
2022-11-17T13:45:03.810Z,11.90
2022-11-17T13:47:47.144Z,11.90
2022-11-17T13:50:37.179Z,11.90
2022-11-17T13:53:13.997Z,11.80
2022-11-17T13:55:46.914Z,11.80
2022-11-17T13:58:27.291Z,11.80
2022-11-17T14:00:57.453Z,11.80
2022-11-17T14:03:37.945Z,11.80
2022-11-17T14:06:08.667Z,11.80
2022-11-17T14:08:38.094Z,11.80
2022-11-17T14:11:21.389Z,11.80
2022-11-17T14:13:51.537Z,11.80
2022-11-17T14:16:26.551Z,11.80
2022-11-17T14:18:59.926Z,11.80
2022-11-17T14:21:28.485Z,11.90
2022-11-17T14:24:06.339Z,11.90
2022-11-17T14:26:35.732Z,11.90
2022-11-17T14:29:03.769Z,11.90
2022-11-17T14:31:33.309Z,11.90
2022-11-17T14:34:01.481Z,11.90
2022-11-17T14:36:29.616Z,11.90
2022-11-17T14:38:57.612Z,11.90
2022-11-17T14:41:25.476Z,11.90
2022-11-17T14:43:54.803Z,11.90
2022-11-17T14:46:24.449Z,11.90
2022-11-17T14:48:53.374Z,11.90
2022-11-17T14:51:22.536Z,11.90
2022-11-17T14:53:51.222Z,12.00
2022-11-17T14:56:20.563Z,11.90
2022-11-17T14:58:49.613Z,12.00
2022-11-17T15:01:20.605Z,11.90
2022-11-17T15:03:48.605Z,12.00
2022-11-17T15:06:19.843Z,12.00
2022-11-17T15:08:48.325Z,12.00
2022-11-17T15:11:18.175Z,12.00
2022-11-17T15:13:46.060Z,12.00
2022-11-17T15:16:14.017Z,12.00
2022-11-17T15:18:45.747Z,12.00
2022-11-17T15:21:14.907Z,12.00
2022-11-17T15:23:43.871Z,12.00
2022-11-17T15:26:13.908Z,12.00
2022-11-17T15:28:41.986Z,12.00
2022-11-17T15:31:11.997Z,12.00
2022-11-17T15:33:41.398Z,12.00
2022-11-17T15:36:12.216Z,12.00
2022-11-17T15:38:41.200Z,12.00
2022-11-17T15:41:10.919Z,12.00
2022-11-17T15:43:41.486Z,12.00
2022-11-17T15:46:10.981Z,12.10
2022-11-17T15:48:42.999Z,12.10
2022-11-17T15:51:14.524Z,12.10
2022-11-17T15:53:43.652Z,12.10
2022-11-17T15:56:12.831Z,12.10
2022-11-17T15:58:42.119Z,12.10
2022-11-17T16:01:11.936Z,12.10
2022-11-17T16:03:40.486Z,12.10
2022-11-17T16:06:08.962Z,12.10
2022-11-17T16:08:39.160Z,12.20
2022-11-17T16:11:07.507Z,12.20
2022-11-17T16:13:35.386Z,12.10
2022-11-17T16:16:03.444Z,12.10
2022-11-17T16:18:33.089Z,12.10
2022-11-17T16:21:04.916Z,12.10
2022-11-17T16:23:40.275Z,12.10
2022-11-17T16:26:09.048Z,12.10
2022-11-17T16:28:37.119Z,12.10
2022-11-17T16:31:15.775Z,12.10
2022-11-17T16:33:48.476Z,12.10
2022-11-17T16:36:16.507Z,12.00
2022-11-17T16:39:13.586Z,12.00
2022-11-17T16:41:35.552Z,12.00
2022-11-17T16:44:07.255Z,12.00
2022-11-17T16:46:35.345Z,12.00
2022-11-17T16:49:04.996Z,12.00
2022-11-17T16:51:34.059Z,12.00
2022-11-17T16:54:04.972Z,12.00
2022-11-17T16:56:33.569Z,12.00
2022-11-17T16:59:01.807Z,12.00
2022-11-17T17:01:31.284Z,12.00
2022-11-17T17:04:01.390Z,12.00
2022-11-17T17:06:29.698Z,12.00
2022-11-17T17:08:59.412Z,11.90
2022-11-17T17:11:31.423Z,11.90
2022-11-17T17:14:00.090Z,11.90
2022-11-17T17:16:28.027Z,11.90
2022-11-17T17:18:57.014Z,11.90
2022-11-17T17:21:24.921Z,11.90
2022-11-17T17:23:53.021Z,11.90
2022-11-17T17:26:22.505Z,11.90
2022-11-17T17:28:55.210Z,11.90
2022-11-17T17:31:24.284Z,11.90
2022-11-17T17:33:53.068Z,12.00
2022-11-17T17:36:22.843Z,11.90
2022-11-17T17:38:55.482Z,11.90
2022-11-17T17:41:25.232Z,11.90
2022-11-17T17:43:58.256Z,11.90
2022-11-17T17:46:26.661Z,11.90
2022-11-17T17:48:54.557Z,11.90
2022-11-17T17:51:25.050Z,11.90
2022-11-17T17:53:54.288Z,11.80
2022-11-17T17:56:23.536Z,11.80
2022-11-17T17:58:51.979Z,11.80
2022-11-17T18:01:24.202Z,11.80
2022-11-17T18:03:53.799Z,11.80
2022-11-17T18:06:23.038Z,11.80
2022-11-17T18:08:51.010Z,11.80
2022-11-17T18:11:21.045Z,11.80
2022-11-17T18:13:50.356Z,11.90
2022-11-17T18:16:22.419Z,11.80
2022-11-17T18:18:50.930Z,11.80
2022-11-17T18:21:20.144Z,11.80
2022-11-17T18:23:48.037Z,11.80
2022-11-17T18:26:17.788Z,11.70
2022-11-17T18:28:50.998Z,11.80
2022-11-17T18:31:19.212Z,11.80
2022-11-17T18:33:51.914Z,11.70
2022-11-17T18:36:21.300Z,11.70
2022-11-17T18:38:50.963Z,11.70
2022-11-17T18:41:20.078Z,11.70
2022-11-17T18:43:48.279Z,11.70
2022-11-17T18:46:18.047Z,11.70
2022-11-17T18:48:48.857Z,11.70
2022-11-17T18:51:19.617Z,11.60
2022-11-17T18:53:48.696Z,11.60
2022-11-17T18:56:19.074Z,11.60
2022-11-17T18:58:47.244Z,11.60
2022-11-17T19:01:17.158Z,11.60
2022-11-17T19:03:48.606Z,11.50
2022-11-17T19:06:18.764Z,11.50
2022-11-17T19:08:48.264Z,11.50
2022-11-17T19:11:17.067Z,11.40
2022-11-17T19:13:45.821Z,11.40
2022-11-17T19:16:15.940Z,11.40
2022-11-17T19:18:45.771Z,11.40
2022-11-17T19:21:16.989Z,11.40
2022-11-17T19:23:51.004Z,11.30
2022-11-17T19:26:21.592Z,11.30
2022-11-17T19:28:49.927Z,11.30
2022-11-17T19:31:19.530Z,11.30
2022-11-17T19:33:49.338Z,11.30
2022-11-17T19:36:20.054Z,11.30
2022-11-17T19:38:49.952Z,11.30
2022-11-17T19:41:20.017Z,11.20
2022-11-17T19:43:48.564Z,11.20
2022-11-17T19:46:17.659Z,11.20
2022-11-17T19:48:46.478Z,11.20
2022-11-17T19:51:17.305Z,11.20
2022-11-17T19:53:47.038Z,11.20
2022-11-17T19:56:15.542Z,11.20
2022-11-17T19:58:43.618Z,11.20
2022-11-17T20:01:13.431Z,11.20
2022-11-17T20:03:42.124Z,11.20
2022-11-17T20:06:11.494Z,11.20
2022-11-17T20:08:39.576Z,11.20
2022-11-17T20:11:11.114Z,11.10
2022-11-17T20:13:39.729Z,11.10
2022-11-17T20:16:12.430Z,11.10
2022-11-17T20:18:41.735Z,11.10
2022-11-17T20:21:10.337Z,11.10
2022-11-17T20:23:39.459Z,11.10
2022-11-17T20:26:11.712Z,11.10
2022-11-17T20:28:39.709Z,11.10
2022-11-17T20:31:10.055Z,11.10
2022-11-17T20:33:38.854Z,11.10
2022-11-17T20:36:07.883Z,11.10
2022-11-17T20:38:36.982Z,11.10
2022-11-17T20:41:05.783Z,11.10
2022-11-17T20:43:35.840Z,11.10
2022-11-17T20:46:04.573Z,11.10
2022-11-17T20:48:34.123Z,11.10
2022-11-17T20:51:04.327Z,11.00
2022-11-17T20:53:33.254Z,11.00
2022-11-17T20:56:02.807Z,11.00
2022-11-17T20:58:32.100Z,11.00
2022-11-17T21:01:08.522Z,11.00
2022-11-17T21:03:36.978Z,11.00
2022-11-17T21:06:05.847Z,11.00
2022-11-17T21:08:35.513Z,11.00
2022-11-17T21:11:05.625Z,11.00
2022-11-17T21:13:35.013Z,11.00
2022-11-17T21:16:09.067Z,11.00
2022-11-17T21:18:39.038Z,11.00
2022-11-17T21:21:09.032Z,11.00
2022-11-17T21:23:38.027Z,11.00
2022-11-17T21:26:07.042Z,11.00
2022-11-17T21:28:35.431Z,11.00
2022-11-17T21:31:09.129Z,11.00
2022-11-17T21:33:37.603Z,11.00
2022-11-17T21:36:08.121Z,11.00
2022-11-17T21:38:36.099Z,11.00
2022-11-17T21:41:04.832Z,11.00
2022-11-17T21:43:33.053Z,11.00
2022-11-17T21:46:04.325Z,10.90
2022-11-17T21:48:33.859Z,11.00
2022-11-17T21:51:01.711Z,10.90
2022-11-17T21:53:29.937Z,10.90
2022-11-17T21:56:02.184Z,10.90
2022-11-17T21:58:30.472Z,10.90
2022-11-17T22:00:58.638Z,10.90
2022-11-17T22:03:27.708Z,10.90
2022-11-17T22:06:06.947Z,10.90
2022-11-17T22:08:37.326Z,10.90
2022-11-17T22:11:06.920Z,10.90
2022-11-17T22:13:34.991Z,10.90
2022-11-17T22:16:08.528Z,10.90
2022-11-17T22:18:36.874Z,10.80
2022-11-17T22:21:07.427Z,10.80
2022-11-17T22:23:35.620Z,10.80
2022-11-17T22:26:06.361Z,10.80
2022-11-17T22:28:34.597Z,10.80
2022-11-17T22:31:05.937Z,10.80
2022-11-17T22:33:34.544Z,10.80
2022-11-17T22:36:03.027Z,10.70
2022-11-17T22:38:32.387Z,10.70
2022-11-17T22:41:01.418Z,10.70
2022-11-17T22:43:29.992Z,10.70
2022-11-17T22:45:58.323Z,10.70
2022-11-17T22:48:26.174Z,10.70
2022-11-17T22:50:54.231Z,10.70
2022-11-17T22:53:22.115Z,10.60
2022-11-17T22:55:51.405Z,10.70
2022-11-17T22:58:19.393Z,10.70
2022-11-17T23:00:47.384Z,10.60
2022-11-17T23:03:15.335Z,10.60
2022-11-17T23:05:43.312Z,10.60
2022-11-17T23:08:11.279Z,10.60
2022-11-17T23:10:39.349Z,10.60
2022-11-17T23:13:08.567Z,10.60
2022-11-17T23:15:39.701Z,10.60
2022-11-17T23:18:07.679Z,10.60
2022-11-17T23:20:37.499Z,10.60
2022-11-17T23:23:05.966Z,10.50
2022-11-17T23:25:34.198Z,10.60
2022-11-17T23:28:02.184Z,10.50
2022-11-17T23:30:31.470Z,10.50
2022-11-17T23:32:59.383Z,10.50
2022-11-17T23:35:27.500Z,10.50
2022-11-17T23:37:55.367Z,10.50
2022-11-17T23:40:23.296Z,10.50
2022-11-17T23:42:53.387Z,10.50
2022-11-17T23:45:21.310Z,10.50
2022-11-17T23:47:50.514Z,10.50
2022-11-17T23:50:18.957Z,10.50
2022-11-17T23:52:46.838Z,10.50
2022-11-17T23:55:15.085Z,10.50
2022-11-17T23:57:43.002Z,10.50
